Time;durP1;ratioP1;P1;durP2;ratioP2;P2;SDS_P1;SDS_P2;PMS_P1;PMS_P2;Temp;Humidity;BMP_temperature;BMP_pressure;BME280_temperature;BME280_humidity;BME280_pressure;Samples;Min_cycle;Max_cycle;Signal;HPM_P1;HPM_P2
2023/08/09 00:00:33;;;;;;;3.83;1.75;;;;;;;18.37;53.51;98767.16;5136650;27;20023;-47
2023/08/09 00:03:00;;;;;;;7.28;1.83;;;;;;;18.53;53.36;98771.59;5135155;27;20028;-47
2023/08/09 00:05:26;;;;;;;4.20;1.70;;;;;;;18.71;52.87;98772.28;5136575;27;20019;-47
2023/08/09 00:07:52;;;;;;;6.05;2.13;;;;;;;18.55;52.68;98769.50;5136518;27;20023;-47
2023/08/09 00:10:18;;;;;;;2.60;1.73;;;;;;;18.34;53.31;98771.13;5136201;27;20358;-48
2023/08/09 00:12:44;;;;;;;3.97;1.58;;;;;;;18.14;53.95;98776.19;5135191;27;20484;-47
2023/08/09 00:15:10;;;;;;;3.22;1.83;;;;;;;18.00;54.54;98788.25;5135140;27;20027;-47
2023/08/09 00:17:36;;;;;;;4.45;2.47;;;;;;;17.90;54.68;98786.25;5136295;27;20107;-47
2023/08/09 00:20:01;;;;;;;8.25;2.28;;;;;;;17.85;55.17;98791.47;5136554;27;20026;-47
2023/08/09 00:22:27;;;;;;;13.30;3.03;;;;;;;17.93;55.11;98786.56;5136153;27;20019;-47
2023/08/09 00:24:53;;;;;;;7.05;1.98;;;;;;;18.08;54.85;98796.56;5136094;27;20516;-47
2023/08/09 00:27:19;;;;;;;2.60;2.00;;;;;;;18.10;54.58;98785.72;5136129;27;20024;-47
2023/08/09 00:29:45;;;;;;;14.38;2.80;;;;;;;18.25;54.63;98785.91;5136103;27;20150;-47
2023/08/09 00:32:10;;;;;;;8.65;2.33;;;;;;;18.47;54.16;98793.84;5136244;27;20046;-47
2023/08/09 00:34:36;;;;;;;3.45;1.55;;;;;;;18.89;53.92;98792.44;5136010;27;20061;-47
2023/08/09 00:37:02;;;;;;;14.30;3.08;;;;;;;19.39;52.75;98795.78;5134885;27;20023;-47
2023/08/09 00:39:28;;;;;;;7.55;2.17;;;;;;;20.02;51.45;98799.41;5134546;27;20109;-47
2023/08/09 00:41:53;;;;;;;7.55;2.33;;;;;;;20.54;50.07;98798.53;5135703;27;20123;-47
2023/08/09 00:44:19;;;;;;;9.23;2.72;;;;;;;20.90;48.22;98798.59;5135680;27;20019;-47
2023/08/09 00:46:45;;;;;;;5.70;2.20;;;;;;;20.95;48.06;98784.47;5135726;27;20030;-47
2023/08/09 00:49:11;;;;;;;10.18;2.55;;;;;;;21.17;47.59;98786.88;5134676;27;20027;-47
2023/08/09 00:51:37;;;;;;;4.60;1.70;;;;;;;21.30;47.19;98780.19;5134343;27;20045;-47
2023/08/09 00:54:03;;;;;;;4.28;1.50;;;;;;;20.92;47.06;98788.47;5135633;27;20023;-47
2023/08/09 00:56:29;;;;;;;4.88;1.70;;;;;;;20.14;48.32;98791.97;5135554;27;20026;-47
2023/08/09 00:58:54;;;;;;;3.95;1.70;;;;;;;19.44;50.08;98798.47;5117186;27;20027;-47
2023/08/09 01:01:20;;;;;;;4.18;2.22;;;;;;;18.83;51.47;98794.22;5134223;27;20023;-47
2023/08/09 01:03:46;;;;;;;10.48;2.40;;;;;;;18.77;52.58;98795.19;5135366;27;20444;-47
2023/08/09 01:06:29;;;;;;;11.00;2.15;;;;;;;18.88;52.70;98790.84;5134308;27;20016;-47
2023/08/09 01:09:04;;;;;;;4.32;2.03;;;;;;;19.23;52.52;98792.97;5134052;27;20442;-47
2023/08/09 01:11:35;;;;;;;3.22;1.83;;;;;;;19.51;51.80;98793.72;5135010;27;20051;-47
2023/08/09 01:14:02;;;;;;;14.63;2.65;;;;;;;19.75;51.40;98780.84;5135529;27;20077;-47
2023/08/09 01:16:29;;;;;;;8.73;2.30;;;;;;;20.02;51.11;98772.75;5134062;27;20027;-47
2023/08/09 01:18:57;;;;;;;4.35;1.85;;;;;;;20.18;50.27;98776.25;5135383;27;20054;-47
2023/08/09 01:21:26;;;;;;;3.10;1.45;;;;;;;20.03;49.54;98776.22;5133793;27;20389;-47
2023/08/09 01:23:52;;;;;;;6.28;1.50;;;;;;;19.43;50.35;98780.91;5133945;27;20485;-47
2023/08/09 01:26:18;;;;;;;2.63;1.90;;;;;;;18.74;51.87;98774.44;5116616;27;20035;-47
2023/08/09 01:28:44;;;;;;;2.65;1.60;;;;;;;18.17;53.59;98784.47;5133569;27;20072;-47
2023/08/09 01:31:10;;;;;;;5.00;1.75;;;;;;;17.75;55.16;98779.66;5133837;27;20024;-47
2023/08/09 01:33:37;;;;;;;5.57;1.58;;;;;;;17.40;55.86;98792.41;5134836;27;20023;-47
2023/08/09 01:36:16;;;;;;;9.00;2.13;;;;;;;17.25;56.74;98785.03;5134782;27;20576;-47
2023/08/09 01:38:51;;;;;;;5.72;2.00;;;;;;;17.24;56.79;98786.84;5134833;27;20019;-47
2023/08/09 01:41:20;;;;;;;;;;;;;;;17.22;56.70;98783.63;5135239;27;20027;-47
2023/08/09 01:43:47;;;;;;;3.05;1.70;;;;;;;17.10;57.40;98794.34;5134592;27;19919;-47
2023/08/09 01:46:14;;;;;;;4.75;2.10;;;;;;;16.89;58.19;98789.72;5134625;27;20025;-46
2023/08/09 01:48:40;;;;;;;4.47;2.13;;;;;;;16.75;58.95;98797.13;5133640;27;20048;-47
2023/08/09 01:51:06;;;;;;;3.90;1.98;;;;;;;16.71;59.39;98791.50;5133426;27;20124;-47
2023/08/09 01:53:32;;;;;;;6.20;2.25;;;;;;;16.61;59.68;98791.31;5133184;27;20491;-47
2023/08/09 01:55:58;;;;;;;3.08;1.70;;;;;;;16.53;60.28;98794.34;5133005;27;20378;-47
2023/08/09 01:58:23;;;;;;;4.95;2.15;;;;;;;16.45;60.58;98797.38;5134342;27;20035;-47
2023/08/09 02:00:49;;;;;;;6.18;2.15;;;;;;;16.40;61.29;98797.25;5133286;27;20024;-47
2023/08/09 02:03:15;;;;;;;6.95;2.22;;;;;;;16.67;60.97;98800.97;5134220;27;20163;-47
2023/08/09 02:05:41;;;;;;;5.18;1.92;;;;;;;16.66;60.29;98804.69;5133186;27;20055;-47
2023/08/09 02:08:07;;;;;;;5.03;2.15;;;;;;;16.43;60.56;98808.19;5132873;27;20477;-47
2023/08/09 02:10:32;;;;;;;7.43;2.00;;;;;;;16.26;61.12;98804.66;5132186;27;20047;-47
2023/08/09 02:12:58;;;;;;;7.68;2.00;;;;;;;16.13;61.59;98806.53;5133628;27;20496;-46
2023/08/09 02:15:24;;;;;;;6.95;2.05;;;;;;;16.11;62.00;98795.38;5133843;27;20023;-47
2023/08/09 02:17:50;;;;;;;5.00;1.90;;;;;;;16.09;62.41;98808.03;5133916;27;20019;-47
2023/08/09 02:20:16;;;;;;;2.60;1.60;;;;;;;15.99;62.80;98802.53;5133869;27;20030;-46
2023/08/09 02:22:43;;;;;;;4.80;2.67;;;;;;;15.93;63.02;98808.75;5132784;27;20091;-47
2023/08/09 02:25:09;;;;;;;4.22;1.80;;;;;;;15.89;63.03;98800.47;5134153;27;20046;-47
2023/08/09 02:27:35;;;;;;;8.25;2.28;;;;;;;15.97;62.84;98800.13;5134099;27;20027;-47
2023/08/09 02:30:06;;;;;;;8.25;3.03;;;;;;;16.12;62.61;98799.66;5132407;27;20114;-47
2023/08/09 02:32:32;;;;;;;7.47;2.25;;;;;;;16.24;62.01;98801.44;5133730;27;20023;-47
2023/08/09 02:34:58;;;;;;;7.03;2.40;;;;;;;16.37;61.62;98802.00;5133664;27;20031;-47
2023/08/09 02:37:24;;;;;;;5.53;1.90;;;;;;;16.36;61.40;98797.75;5133651;27;20027;-47
2023/08/09 02:39:50;;;;;;;2.97;1.90;;;;;;;16.25;61.34;98801.22;5133649;27;20553;-47
2023/08/09 02:42:16;;;;;;;4.35;2.00;;;;;;;16.17;61.61;98801.59;5133440;27;20546;-47
2023/08/09 02:44:42;;;;;;;7.00;1.95;;;;;;;16.06;61.81;98803.22;5133494;27;20015;-47
2023/08/09 02:47:08;;;;;;;7.60;2.08;;;;;;;15.95;62.09;98809.34;5132412;27;20027;-46
2023/08/09 02:49:34;;;;;;;3.17;1.70;;;;;;;15.86;62.59;98806.25;5132051;27;20027;-47
2023/08/09 02:52:00;;;;;;;4.10;2.72;;;;;;;15.76;63.09;98813.97;5132319;27;20058;-47
2023/08/09 02:54:26;;;;;;;3.88;2.17;;;;;;;15.69;63.53;98816.69;5132457;27;20536;-47
2023/08/09 02:56:51;;;;;;;3.38;2.00;;;;;;;15.62;63.65;98826.59;5133236;27;20043;-47
2023/08/09 02:59:17;;;;;;;4.20;1.80;;;;;;;15.58;63.96;98826.22;5133269;27;20044;-46
2023/08/09 03:01:44;;;;;;;5.88;2.03;;;;;;;15.58;64.05;98820.16;5133181;27;20171;-47
2023/08/09 03:04:10;;;;;;;4.35;2.22;;;;;;;15.52;64.11;98821.84;5133083;27;20015;-47
2023/08/09 03:06:36;;;;;;;2.72;1.92;;;;;;;15.54;64.14;98830.38;5133327;27;20034;-47
2023/08/09 03:09:03;;;;;;;3.00;2.00;;;;;;;15.50;64.19;98833.72;5133118;27;20389;-47
2023/08/09 03:11:29;;;;;;;5.22;2.40;;;;;;;15.38;64.21;98838.97;5132738;27;20043;-47
2023/08/09 03:13:54;;;;;;;8.88;2.60;;;;;;;15.31;64.48;98841.75;5131617;27;20023;-47
2023/08/09 03:16:20;;;;;;;3.80;2.00;;;;;;;15.30;64.57;98844.59;5131962;27;20034;-47
2023/08/09 03:18:46;;;;;;;3.42;1.90;;;;;;;15.34;64.66;98837.81;5131794;27;20030;-47
2023/08/09 03:21:13;;;;;;;6.47;2.80;;;;;;;15.40;64.51;98838.75;5132880;27;20027;-47
2023/08/09 03:23:38;;;;;;;5.15;1.85;;;;;;;15.42;64.19;98840.13;5131517;27;20015;-47
2023/08/09 03:26:05;;;;;;;5.75;2.15;;;;;;;15.38;64.19;98844.28;5131487;27;20031;-47
2023/08/09 03:28:32;;;;;;;9.70;2.10;;;;;;;15.45;64.34;98850.25;5132803;27;20012;-47
2023/08/09 03:30:58;;;;;;;6.35;2.10;;;;;;;15.68;64.33;98852.13;5132763;27;20023;-47
2023/08/09 03:33:25;;;;;;;3.70;1.77;;;;;;;16.13;63.82;98848.91;5132818;27;20031;-48
2023/08/09 03:35:51;;;;;;;6.63;2.10;;;;;;;16.71;62.70;98849.81;5132687;27;20392;-47
2023/08/09 03:38:17;;;;;;;8.50;2.28;;;;;;;17.17;61.01;98855.19;5132783;27;20019;-47
2023/08/09 03:40:43;;;;;;;3.08;1.83;;;;;;;17.13;59.46;98846.88;5131666;28;20076;-47
2023/08/09 03:43:08;;;;;;;5.13;2.10;;;;;;;16.83;59.41;98849.00;5131566;28;20050;-47
2023/08/09 03:45:34;;;;;;;9.43;2.42;;;;;;;16.51;60.01;98852.06;5132922;27;20058;-47
2023/08/09 03:48:00;;;;;;;6.07;2.17;;;;;;;16.38;60.46;98853.16;5131334;28;20397;-47
2023/08/09 03:50:26;;;;;;;4.65;2.05;;;;;;;16.32;60.69;98864.69;5131352;28;20031;-47
2023/08/09 03:52:52;;;;;;;6.40;2.22;;;;;;;16.45;60.89;98860.94;5131533;28;20564;-47
2023/08/09 03:55:19;;;;;;;8.35;2.40;;;;;;;16.68;60.27;98865.38;5132548;27;20019;-47
2023/08/09 03:57:45;;;;;;;7.40;2.70;;;;;;;16.65;60.06;98866.66;5131216;28;20030;-47
2023/08/09 04:00:17;;;;;;;5.97;1.73;;;;;;;16.54;59.60;98870.13;5132775;27;20019;-46
2023/08/09 04:02:47;;;;;;;6.50;2.47;;;;;;;16.33;60.06;98866.28;5132491;27;20024;-47
2023/08/09 04:05:14;;;;;;;6.78;2.20;;;;;;;16.42;60.37;98872.84;5131467;28;20438;-47
2023/08/09 04:07:42;;;;;;;6.68;2.00;;;;;;;16.55;59.88;98879.69;5132417;27;20019;-47
2023/08/09 04:10:08;;;;;;;5.10;2.08;;;;;;;16.38;59.16;98871.69;5132420;27;20027;-47
2023/08/09 04:12:35;;;;;;;6.63;1.95;;;;;;;16.04;60.12;98882.09;5132142;28;20432;-47
2023/08/09 04:15:01;;;;;;;15.38;2.47;;;;;;;15.78;60.48;98880.69;5131442;28;20023;-47
2023/08/09 04:17:28;;;;;;;10.65;2.80;;;;;;;15.71;61.08;98878.09;5132360;27;20019;-47
2023/08/09 04:19:53;;;;;;;3.92;1.90;;;;;;;15.59;61.79;98887.88;5131256;28;20049;-47
2023/08/09 04:22:19;;;;;;;5.22;2.13;;;;;;;15.47;62.49;98879.91;5132329;27;20055;-46
2023/08/09 04:24:45;;;;;;;6.55;2.45;;;;;;;15.22;63.09;98885.38;5131233;28;20032;-46
2023/08/09 04:27:11;;;;;;;4.60;1.98;;;;;;;15.09;63.66;98890.84;5130886;28;20030;-47
2023/08/09 04:29:37;;;;;;;4.65;2.60;;;;;;;15.02;64.23;98898.88;5130886;28;20516;-47
2023/08/09 04:32:03;;;;;;;5.53;2.35;;;;;;;15.01;64.61;98902.56;5131142;28;20023;-47
2023/08/09 04:34:29;;;;;;;6.70;1.92;;;;;;;14.94;64.95;98896.53;5132175;27;20023;-47
2023/08/09 04:36:54;;;;;;;3.00;1.65;;;;;;;14.93;65.00;98892.28;5133313;27;20084;-47
2023/08/09 04:39:20;;;;;;;8.40;2.45;;;;;;;14.91;65.07;98892.53;5135961;27;20023;-47
2023/08/09 04:41:46;;;;;;;3.88;1.90;;;;;;;15.01;65.03;98888.53;5134647;27;20030;-47
2023/08/09 04:44:11;;;;;;;7.32;2.33;;;;;;;15.03;64.77;98891.75;5135754;27;20476;-47
2023/08/09 04:46:37;;;;;;;3.90;2.03;;;;;;;15.01;64.83;98896.44;5134693;27;20027;-47
2023/08/09 04:49:03;;;;;;;9.25;2.33;;;;;;;15.06;64.80;98901.88;5117305;27;20481;-47
2023/08/09 04:51:29;;;;;;;4.03;2.35;;;;;;;15.17;64.66;98907.22;5135710;27;20041;-47
2023/08/09 04:53:55;;;;;;;5.03;3.15;;;;;;;15.30;64.16;98908.06;5135680;27;20019;-47
2023/08/09 04:56:21;;;;;;;7.15;2.03;;;;;;;15.33;64.06;98895.19;5135608;27;20031;-47
2023/08/09 04:58:47;;;;;;;4.25;2.03;;;;;;;15.28;64.15;98904.84;5117453;27;20027;-47
2023/08/09 05:01:12;;;;;;;3.65;2.35;;;;;;;15.25;64.39;98902.63;5135772;27;20034;-47
2023/08/09 05:03:38;;;;;;;56.53;50.72;;;;;;;15.42;64.29;98902.81;5134117;27;20110;-47
2023/08/09 05:06:04;;;;;;;6.22;3.33;;;;;;;15.46;64.00;98899.47;5134120;27;20030;-47
2023/08/09 05:08:29;;;;;;;7.15;2.50;;;;;;;15.43;63.96;98904.41;5135389;27;20051;-47
2023/08/09 05:10:55;;;;;;;3.20;2.22;;;;;;;15.34;64.19;98903.94;5135056;27;20595;-46
2023/08/09 05:13:20;;;;;;;7.68;2.47;;;;;;;15.39;64.46;98911.97;5135364;27;20054;-46
2023/08/09 05:15:46;;;;;;;6.65;2.30;;;;;;;15.66;63.67;98901.81;5135193;27;20492;-47
2023/08/09 05:18:12;;;;;;;5.95;2.20;;;;;;;16.12;62.46;98905.56;5135232;27;20396;-47
2023/08/09 05:20:38;;;;;;;4.93;2.78;;;;;;;16.77;60.22;98903.72;5135080;27;20102;-47
2023/08/09 05:23:04;;;;;;;5.85;2.83;;;;;;;17.42;58.30;98907.84;5135082;27;20081;-47
2023/08/09 05:25:29;;;;;;;5.28;2.15;;;;;;;17.78;56.22;98900.47;5134059;27;20034;-47
2023/08/09 05:27:56;;;;;;;4.97;2.60;;;;;;;17.86;55.61;98905.41;5134014;27;20057;-47
2023/08/09 05:30:22;;;;;;;5.88;2.45;;;;;;;17.82;56.03;98898.16;5134961;27;20027;-47
2023/08/09 05:32:48;;;;;;;7.22;2.80;;;;;;;17.97;55.72;98898.41;5134908;27;20023;-47
2023/08/09 05:35:14;;;;;;;55.20;48.33;;;;;;;18.50;54.68;98897.00;5133728;27;20034;-47
2023/08/09 05:37:40;;;;;;;5.20;2.75;;;;;;;19.05;52.64;98887.25;5133801;27;20492;-47
2023/08/09 05:40:09;;;;;;;3.83;2.42;;;;;;;19.23;51.52;98885.31;5135021;27;20034;-46
2023/08/09 05:42:35;;;;;;;5.38;2.58;;;;;;;19.45;50.66;98886.03;5134641;27;20023;-47
2023/08/09 05:45:01;;;;;;;8.43;2.85;;;;;;;19.79;49.42;98885.00;5134642;27;20027;-47
2023/08/09 05:47:26;;;;;;;6.70;2.40;;;;;;;20.19;48.70;98883.66;5133379;27;20020;-47
2023/08/09 05:49:53;;;;;;;7.88;3.28;;;;;;;20.55;47.41;98881.97;5133768;27;20019;-47
2023/08/09 05:52:19;;;;;;;10.38;3.97;;;;;;;20.90;46.45;98893.84;5134497;27;20031;-47
2023/08/09 05:54:46;;;;;;;54.20;23.98;;;;;;;21.27;45.46;98887.50;5133445;27;20080;-47
2023/08/09 05:57:13;;;;;;;732.38;597.58;;;;;;;21.70;44.67;98885.41;5134654;27;20045;-47
2023/08/09 05:59:39;;;;;;;460.13;386.02;;;;;;;22.18;43.73;98891.22;5134597;27;20054;-47
2023/08/09 06:02:06;;;;;;;1999.90;999.90;;;;;;;23.12;45.99;98883.38;5134293;27;20015;-47
2023/08/09 06:04:35;;;;;;;1523.57;795.78;;;;;;;24.58;41.26;98885.25;5134112;27;20557;-47
2023/08/09 06:07:01;;;;;;;973.08;590.60;;;;;;;25.64;38.86;98885.91;5133189;27;20076;-47
2023/08/09 06:09:26;;;;;;;1693.28;974.53;;;;;;;26.34;37.76;98890.28;5134208;27;20023;-47
2023/08/09 06:11:52;;;;;;;862.58;698.33;;;;;;;27.20;35.95;98891.44;5132471;27;20125;-47
2023/08/09 06:14:18;;;;;;;400.27;358.48;;;;;;;27.91;34.34;98888.13;5134156;27;20055;-47
2023/08/09 06:16:47;;;;;;;556.60;498.50;;;;;;;28.49;33.41;98887.88;5133998;27;20062;-47
2023/08/09 06:19:13;;;;;;;434.17;387.20;;;;;;;29.10;31.93;98887.19;5133916;27;20397;-47
2023/08/09 06:21:39;;;;;;;324.33;294.65;;;;;;;29.47;31.78;98890.34;5133930;27;20048;-47
2023/08/09 06:24:05;;;;;;;168.55;151.63;;;;;;;30.01;30.59;98904.25;5133812;27;20027;-48
2023/08/09 06:26:32;;;;;;;156.45;140.25;;;;;;;30.50;29.41;98897.69;5133796;27;20023;-47
2023/08/09 06:28:58;;;;;;;86.60;61.00;;;;;;;30.90;28.40;98902.72;5133782;27;20031;-45
2023/08/09 06:31:24;;;;;;;50.50;25.23;;;;;;;31.25;28.02;98901.31;5115278;27;20031;-46
2023/08/09 06:33:50;;;;;;;40.47;14.05;;;;;;;31.58;27.71;98902.47;5134007;27;20037;-46
2023/08/09 06:36:15;;;;;;;43.05;20.00;;;;;;;32.00;26.79;98894.22;5132310;27;20519;-45
2023/08/09 06:38:41;;;;;;;38.63;15.70;;;;;;;32.58;26.04;98903.06;5133641;27;20027;-48
2023/08/09 06:41:07;;;;;;;27.10;8.02;;;;;;;33.16;25.13;98891.16;5133467;27;20019;-48
2023/08/09 06:43:33;;;;;;;32.17;8.43;;;;;;;33.59;25.23;98895.03;5133660;27;20022;-46
2023/08/09 06:46:00;;;;;;;37.80;7.00;;;;;;;33.68;24.86;98894.91;5133514;27;20529;-46
2023/08/09 06:48:29;;;;;;;30.90;7.63;;;;;;;34.07;23.92;98895.06;5132098;27;20027;-45
2023/08/09 06:50:56;;;;;;;37.92;6.45;;;;;;;34.39;24.22;98902.13;5133331;27;20026;-46
2023/08/09 06:53:23;;;;;;;86.32;9.43;;;;;;;34.49;24.76;98906.25;5132001;27;20052;-46
2023/08/09 06:55:49;;;;;;;38.90;6.40;;;;;;;34.96;24.49;98904.53;5133519;27;20057;-46
2023/08/09 06:58:15;;;;;;;42.67;8.52;;;;;;;34.94;25.09;98899.44;5133550;27;20947;-46
2023/08/09 07:00:40;;;;;;;40.45;4.57;;;;;;;34.79;24.48;98914.72;5132976;27;20493;-46
2023/08/09 07:03:07;;;;;;;36.63;4.80;;;;;;;34.94;24.10;98915.81;5133099;27;20112;-46
2023/08/09 07:05:33;;;;;;;31.45;3.78;;;;;;;34.87;24.45;98915.63;5133124;27;20038;-46
2023/08/09 07:07:59;;;;;;;33.38;3.80;;;;;;;34.51;24.87;98920.31;5133064;27;20023;-46
2023/08/09 07:10:25;;;;;;;22.10;3.92;;;;;;;34.22;25.65;98927.00;5131442;27;20054;-47
2023/08/09 07:12:51;;;;;;;15.23;2.88;;;;;;;34.06;26.28;98918.81;5133072;27;20047;-46
2023/08/09 07:15:17;;;;;;;16.63;3.55;;;;;;;33.69;26.65;98919.06;5133068;27;20111;-46
2023/08/09 07:17:42;;;;;;;18.88;4.53;;;;;;;33.63;27.15;98929.41;5133007;27;20026;-46
2023/08/09 07:20:11;;;;;;;26.13;4.25;;;;;;;33.82;27.12;98914.31;5131717;27;20031;-45
2023/08/09 07:22:41;;;;;;;40.08;5.78;;;;;;;33.90;27.21;98913.34;5132900;27;20432;-46
2023/08/09 07:25:09;;;;;;;33.45;5.60;;;;;;;33.89;27.66;98911.78;5132977;27;20031;-46
2023/08/09 07:27:43;;;;;;;24.48;3.20;;;;;;;33.98;26.03;98917.84;5132873;27;20015;-46
2023/08/09 07:30:10;;;;;;;22.45;3.80;;;;;;;34.93;24.94;98916.16;5132911;27;20408;-46
2023/08/09 07:32:40;;;;;;;196.60;17.27;;;;;;;35.92;23.61;98913.00;5132787;27;20055;-45
2023/08/09 07:35:08;;;;;;;33.30;4.80;;;;;;;36.69;22.20;98903.69;5131658;27;20019;-48
2023/08/09 07:37:35;;;;;;;22.15;3.45;;;;;;;36.86;21.32;98905.06;5132763;27;20037;-48
2023/08/09 07:40:04;;;;;;;12.60;2.97;;;;;;;37.36;20.64;98899.41;5131556;28;20050;-48
2023/08/09 07:42:30;;;;;;;36.85;4.82;;;;;;;37.56;20.38;98902.75;5132651;27;20110;-48
2023/08/09 07:44:55;;;;;;;15.48;2.60;;;;;;;37.81;20.88;98902.22;5132720;27;20106;-49
2023/08/09 07:47:21;;;;;;;40.92;5.50;;;;;;;38.12;20.05;98895.47;5131336;28;20522;-48
2023/08/09 07:49:47;;;;;;;22.13;3.63;;;;;;;38.11;19.58;98889.19;5132660;27;20549;-48
2023/08/09 07:52:12;;;;;;;8.32;2.03;;;;;;;38.27;19.94;98888.91;5131269;28;20022;-48
2023/08/09 07:54:38;;;;;;;17.27;3.15;;;;;;;39.00;18.86;98890.91;5132627;27;20028;-49
2023/08/09 07:57:04;;;;;;;20.48;3.38;;;;;;;39.28;18.70;98892.16;5132570;27;20063;-48
2023/08/09 07:59:29;;;;;;;20.52;3.00;;;;;;;39.99;17.74;98887.97;5131331;28;20024;-49
2023/08/09 08:01:58;;;;;;;13.65;2.80;;;;;;;40.73;17.43;98883.50;5132557;27;20076;-49
2023/08/09 08:04:24;;;;;;;18.15;2.83;;;;;;;41.16;16.74;98888.84;5131382;28;20023;-49
2023/08/09 08:06:49;;;;;;;32.67;3.92;;;;;;;41.46;16.34;98885.53;5132515;27;20064;-48
2023/08/09 08:09:16;;;;;;;27.45;4.43;;;;;;;41.78;16.36;98889.25;5131132;28;20037;-48
2023/08/09 08:11:43;;;;;;;17.52;2.53;;;;;;;41.73;16.21;98890.47;5131921;27;20043;-48
2023/08/09 08:14:09;;;;;;;17.60;2.50;;;;;;;41.12;16.72;98899.84;5136472;27;20019;-48
2023/08/09 08:16:37;;;;;;;15.52;2.58;;;;;;;40.83;16.67;98892.91;5136307;27;20073;-48
2023/08/09 08:19:03;;;;;;;15.40;2.40;;;;;;;40.24;17.05;98896.94;5136299;27;20039;-48
2023/08/09 08:21:29;;;;;;;8.13;2.03;;;;;;;39.10;17.74;98892.91;5136336;27;20034;-48
2023/08/09 08:23:56;;;;;;;27.02;3.55;;;;;;;38.49;17.98;98889.81;5134859;27;20110;-49
2023/08/09 08:26:23;;;;;;;14.13;2.40;;;;;;;38.50;18.01;98887.88;5136200;27;20025;-49
2023/08/09 08:28:49;;;;;;;11.27;2.40;;;;;;;38.46;18.08;98887.06;5136153;27;20023;-49
2023/08/09 08:31:19;;;;;;;22.27;2.85;;;;;;;38.64;18.00;98895.44;5134798;27;20054;-49
2023/08/09 08:33:46;;;;;;;11.40;2.05;;;;;;;38.58;17.67;98895.00;5136137;27;20034;-48
2023/08/09 08:36:12;;;;;;;175.82;16.42;;;;;;;39.03;17.12;98898.34;5136011;27;20023;-48
2023/08/09 08:38:38;;;;;;;29.48;3.45;;;;;;;40.09;16.66;98890.69;5134596;27;20026;-49
2023/08/09 08:41:05;;;;;;;4.75;1.63;;;;;;;41.13;14.78;98884.13;5136008;27;20130;-49
2023/08/09 08:43:31;;;;;;;21.83;2.80;;;;;;;41.78;13.95;98879.00;5135766;27;20023;-48
2023/08/09 08:45:58;;;;;;;20.13;2.65;;;;;;;42.35;14.17;98877.72;5134674;27;20029;-48
2023/08/09 08:48:24;;;;;;;16.35;2.33;;;;;;;42.49;14.24;98874.03;5135770;27;20662;-48
2023/08/09 08:50:54;;;;;;;18.10;3.22;;;;;;;42.46;14.20;98866.56;5135795;27;20042;-48
2023/08/09 08:53:21;;;;;;;2.85;1.80;;;;;;;42.64;13.52;98867.16;5135744;27;20400;-48
2023/08/09 08:55:47;;;;;;;5.93;2.30;;;;;;;43.39;13.26;98868.16;5135635;27;20405;-49
2023/08/09 08:58:14;;;;;;;12.02;2.28;;;;;;;43.36;13.39;98854.41;5135650;27;20559;-49
2023/08/09 09:00:40;;;;;;;4.70;1.73;;;;;;;43.08;13.15;98859.91;5135521;27;20026;-49
2023/08/09 09:03:06;;;;;;;12.45;2.30;;;;;;;43.21;13.82;98860.09;5135705;27;20473;-48
2023/08/09 09:05:32;;;;;;;14.05;2.17;;;;;;;43.27;13.45;98854.94;5135445;27;20437;-49
2023/08/09 09:07:57;;;;;;;11.07;3.15;;;;;;;43.09;13.61;98853.19;5134167;27;20110;-49
2023/08/09 09:10:23;;;;;;;15.68;2.30;;;;;;;42.98;13.79;98858.06;5134022;27;20120;-49
2023/08/09 09:12:53;;;;;;;9.98;1.70;;;;;;;42.97;13.54;98850.97;5135429;27;20045;-48
2023/08/09 09:15:19;;;;;;;5.45;1.58;;;;;;;43.26;13.49;98847.78;5134287;27;20027;-49
2023/08/09 09:17:46;;;;;;;4.60;1.50;;;;;;;43.62;13.14;98845.28;5135299;27;20015;-49
2023/08/09 09:20:20;;;;;;;6.90;1.50;;;;;;;44.36;12.70;98836.09;5135019;27;20051;-49
2023/08/09 09:22:48;;;;;;;11.75;1.80;;;;;;;44.39;12.94;98839.97;5134955;27;20525;-48
2023/08/09 09:25:14;;;;;;;6.70;2.00;;;;;;;43.72;13.07;98838.03;5135334;27;20038;-49
2023/08/09 09:27:43;;;;;;;11.50;3.00;;;;;;;43.80;13.23;98833.94;5135345;27;20020;-49
2023/08/09 09:30:13;;;;;;;7.05;3.90;;;;;;;44.11;13.00;98838.56;5135047;27;20019;-49
2023/08/09 09:32:53;;;;;;;7.80;1.88;;;;;;;44.53;13.08;98839.72;5134958;27;20019;-49
2023/08/09 09:35:19;;;;;;;4.10;1.67;;;;;;;44.91;12.85;98830.25;5134953;27;20110;-49
2023/08/09 09:37:50;;;;;;;15.98;2.13;;;;;;;44.70;12.42;98834.25;5133590;27;20505;-49
2023/08/09 09:40:28;;;;;;;15.68;3.03;;;;;;;44.36;12.54;98836.09;5134793;27;20625;-49
2023/08/09 09:42:55;;;;;;;4.18;1.42;;;;;;;43.91;13.22;98835.72;5134628;27;20027;-49
2023/08/09 09:45:29;;;;;;;8.57;1.80;;;;;;;43.81;13.26;98829.97;5133323;27;20027;-49
2023/08/09 09:47:57;;;;;;;20.55;2.85;;;;;;;44.18;12.79;98825.38;5134790;27;20443;-49
2023/08/09 09:50:27;;;;;;;48.10;4.70;;;;;;;44.82;12.79;98823.28;5134636;27;20018;-49
2023/08/09 09:52:54;;;;;;;11.27;1.90;;;;;;;45.08;12.50;98822.72;5134845;27;20393;-49
2023/08/09 09:55:26;;;;;;;11.18;2.13;;;;;;;45.03;11.74;98827.56;5134527;27;20023;-49
2023/08/09 09:57:55;;;;;;;9.45;1.45;;;;;;;44.84;11.32;98826.41;5134548;27;20023;-49
2023/08/09 10:00:25;;;;;;;5.45;1.20;;;;;;;45.07;11.04;98827.50;5134409;27;20046;-49
2023/08/09 10:02:52;;;;;;;5.47;1.15;;;;;;;45.81;10.52;98817.81;5134262;27;20023;-49
2023/08/09 10:05:24;;;;;;;14.88;2.20;;;;;;;46.19;10.15;98820.78;5132814;27;20071;-49
2023/08/09 10:07:51;;;;;;;14.80;2.03;;;;;;;46.28;10.36;98819.34;5134204;27;20027;-48
2023/08/09 10:10:17;;;;;;;7.78;1.63;;;;;;;45.84;10.66;98823.28;5361003;22;20008;-51
2023/08/09 10:13:03;;;;;;;2.55;1.42;;;;;;;45.76;10.82;98824.69;5052736;28;20048;-50
2023/08/09 10:15:34;;;;;;;4.13;1.60;;;;;;;45.49;10.38;98821.41;5052973;28;20106;-50
2023/08/09 10:18:10;;;;;;;15.95;3.78;;;;;;;45.01;10.59;98829.22;5053075;28;20444;-50
2023/08/09 10:20:51;;;;;;;13.98;3.03;;;;;;;43.77;11.38;98822.94;5052803;28;20083;-50
2023/08/09 10:23:24;;;;;;;4.07;1.42;;;;;;;43.75;11.72;98828.09;5052770;28;20509;-50
2023/08/09 10:25:51;;;;;;;6.20;2.38;;;;;;;44.04;11.31;98831.16;5052827;28;20074;-50
2023/08/09 10:28:19;;;;;;;5.90;1.85;;;;;;;44.34;11.52;98826.66;5034811;28;20031;-50
2023/08/09 10:30:49;;;;;;;4.03;1.30;;;;;;;44.53;11.45;98820.34;5052622;28;20052;-50
2023/08/09 10:33:18;;;;;;;6.13;1.80;;;;;;;44.38;11.63;98821.84;5052663;28;20068;-50
2023/08/09 10:35:51;;;;;;;47.85;6.93;;;;;;;43.97;11.88;98821.00;5052048;28;20532;-50
2023/08/09 10:38:32;;;;;;;8.85;2.25;;;;;;;44.14;12.07;98813.59;5034692;28;20057;-49
2023/08/09 10:41:06;;;;;;;16.85;2.13;;;;;;;44.23;11.76;98811.06;5052562;28;20033;-50
2023/08/09 10:43:34;;;;;;;16.83;1.70;;;;;;;44.11;12.08;98814.44;5052638;28;20043;-49
2023/08/09 10:46:18;;;;;;;17.67;2.42;;;;;;;44.37;11.81;98814.72;5052382;28;20029;-50
2023/08/09 10:48:58;;;;;;;6.05;1.80;;;;;;;44.76;11.49;98804.84;5052363;28;20025;-50
2023/08/09 10:51:25;;;;;;;13.82;2.10;;;;;;;44.62;11.79;98809.47;5052348;28;20037;-50
2023/08/09 10:54:03;;;;;;;5.07;1.27;;;;;;;44.32;11.91;98802.19;5052533;28;20044;-50
2023/08/09 10:56:30;;;;;;;11.05;2.72;;;;;;;43.94;11.80;98810.00;5052297;28;20029;-49
2023/08/09 10:59:04;;;;;;;14.63;2.00;;;;;;;43.28;12.62;98810.28;5052216;28;20024;-50
2023/08/09 11:01:30;;;;;;;8.07;1.65;;;;;;;43.32;12.56;98809.47;5052152;28;20041;-50
2023/08/09 11:03:57;;;;;;;22.10;3.78;;;;;;;43.19;12.66;98812.00;5052245;28;20021;-49
2023/08/09 11:06:34;;;;;;;49.65;5.38;;;;;;;42.77;13.06;98805.88;5051989;28;20032;-50
2023/08/09 11:09:11;;;;;;;13.15;2.05;;;;;;;42.19;13.30;98800.25;5034087;28;20024;-50
2023/08/09 11:11:37;;;;;;;4.93;1.58;;;;;;;41.45;13.89;98812.31;5051597;28;20045;-50
2023/08/09 11:14:04;;;;;;;5.75;1.40;;;;;;;40.90;14.24;98815.81;5051747;28;20033;-50
2023/08/09 11:16:31;;;;;;;7.05;1.60;;;;;;;40.57;14.02;98814.38;5051879;28;20561;-49
2023/08/09 11:19:12;;;;;;;4.15;1.55;;;;;;;40.56;14.56;98813.59;5034021;28;20544;-50
2023/08/09 11:21:44;;;;;;;6.45;2.25;;;;;;;40.75;14.53;98811.56;5052164;28;20025;-50
2023/08/09 11:24:12;;;;;;;11.75;2.40;;;;;;;40.78;14.59;98817.06;5033876;28;20506;-49
2023/08/09 11:26:44;;;;;;;7.72;2.80;;;;;;;40.45;14.83;98813.66;5033867;28;20017;-49
2023/08/09 11:29:11;;;;;;;9.43;1.70;;;;;;;40.04;14.65;98816.84;5034002;28;20033;-49